sensor_id;sensor_type;location;lat;lon;timestamp;P1;durP1;ratioP1;P2;durP2;ratioP2
4307;SDS011;2167;53.448;9.984;2023-07-29T00:00:37;3.50;;;2.40;;
4307;SDS011;2167;53.448;9.984;2023-07-29T00:03:04;3.93;;;2.43;;
4307;SDS011;2167;53.448;9.984;2023-07-29T00:05:30;2.17;;;1.93;;
4307;SDS011;2167;53.448;9.984;2023-07-29T00:07:56;3.23;;;2.13;;
4307;SDS011;2167;53.448;9.984;2023-07-29T00:10:22;2.20;;;2.00;;
4307;SDS011;2167;53.448;9.984;2023-07-29T00:12:48;2.07;;;1.80;;
4307;SDS011;2167;53.448;9.984;2023-07-29T00:15:14;2.67;;;2.47;;
4307;SDS011;2167;53.448;9.984;2023-07-29T00:17:40;4.40;;;3.07;;
4307;SDS011;2167;53.448;9.984;2023-07-29T00:20:06;3.07;;;2.50;;
4307;SDS011;2167;53.448;9.984;2023-07-29T00:22:32;2.77;;;2.47;;
4307;SDS011;2167;53.448;9.984;2023-07-29T00:24:58;3.40;;;2.40;;
4307;SDS011;2167;53.448;9.984;2023-07-29T00:27:25;9.00;;;2.27;;
4307;SDS011;2167;53.448;9.984;2023-07-29T00:29:51;2.73;;;1.80;;
4307;SDS011;2167;53.448;9.984;2023-07-29T00:32:17;4.13;;;2.10;;
4307;SDS011;2167;53.448;9.984;2023-07-29T00:34:43;2.90;;;2.43;;
4307;SDS011;2167;53.448;9.984;2023-07-29T00:37:09;3.30;;;2.37;;
4307;SDS011;2167;53.448;9.984;2023-07-29T00:39:35;2.13;;;1.87;;
4307;SDS011;2167;53.448;9.984;2023-07-29T00:42:05;2.80;;;1.83;;
4307;SDS011;2167;53.448;9.984;2023-07-29T00:44:31;5.00;;;2.10;;
4307;SDS011;2167;53.448;9.984;2023-07-29T00:46:57;1.90;;;1.80;;
4307;SDS011;2167;53.448;9.984;2023-07-29T00:49:24;4.97;;;2.83;;
4307;SDS011;2167;53.448;9.984;2023-07-29T00:51:50;2.27;;;2.07;;
4307;SDS011;2167;53.448;9.984;2023-07-29T00:54:16;4.00;;;2.80;;
4307;SDS011;2167;53.448;9.984;2023-07-29T00:56:42;2.73;;;2.57;;
4307;SDS011;2167;53.448;9.984;2023-07-29T00:59:08;2.33;;;2.13;;
4307;SDS011;2167;53.448;9.984;2023-07-29T01:01:34;2.60;;;2.30;;
4307;SDS011;2167;53.448;9.984;2023-07-29T01:04:01;6.17;;;2.40;;
4307;SDS011;2167;53.448;9.984;2023-07-29T01:09:25;3.67;;;2.73;;
4307;SDS011;2167;53.448;9.984;2023-07-29T01:14:41;5.20;;;2.63;;
4307;SDS011;2167;53.448;9.984;2023-07-29T01:17:17;2.73;;;1.90;;
4307;SDS011;2167;53.448;9.984;2023-07-29T01:22:33;5.10;;;2.40;;
4307;SDS011;2167;53.448;9.984;2023-07-29T01:24:59;3.60;;;2.83;;
4307;SDS011;2167;53.448;9.984;2023-07-29T01:27:25;3.03;;;2.57;;
4307;SDS011;2167;53.448;9.984;2023-07-29T01:29:52;7.40;;;3.10;;
4307;SDS011;2167;53.448;9.984;2023-07-29T01:35:07;4.40;;;3.67;;
4307;SDS011;2167;53.448;9.984;2023-07-29T01:37:36;7.20;;;4.43;;
4307;SDS011;2167;53.448;9.984;2023-07-29T01:40:03;5.50;;;3.13;;
4307;SDS011;2167;53.448;9.984;2023-07-29T01:42:29;3.50;;;2.83;;
4307;SDS011;2167;53.448;9.984;2023-07-29T01:44:56;4.83;;;3.60;;
4307;SDS011;2167;53.448;9.984;2023-07-29T01:47:22;7.53;;;4.13;;
4307;SDS011;2167;53.448;9.984;2023-07-29T01:49:48;3.93;;;3.50;;
4307;SDS011;2167;53.448;9.984;2023-07-29T01:52:14;5.90;;;4.40;;
4307;SDS011;2167;53.448;9.984;2023-07-29T01:54:40;8.17;;;3.90;;
4307;SDS011;2167;53.448;9.984;2023-07-29T01:57:06;7.23;;;4.73;;
4307;SDS011;2167;53.448;9.984;2023-07-29T01:59:32;3.57;;;2.93;;
4307;SDS011;2167;53.448;9.984;2023-07-29T02:01:58;5.03;;;3.73;;
4307;SDS011;2167;53.448;9.984;2023-07-29T02:04:24;5.60;;;4.37;;
4307;SDS011;2167;53.448;9.984;2023-07-29T02:06:50;6.77;;;4.70;;
4307;SDS011;2167;53.448;9.984;2023-07-29T02:09:16;7.40;;;4.37;;
4307;SDS011;2167;53.448;9.984;2023-07-29T02:11:42;6.40;;;4.23;;
4307;SDS011;2167;53.448;9.984;2023-07-29T02:14:08;4.80;;;3.53;;
4307;SDS011;2167;53.448;9.984;2023-07-29T02:16:34;6.87;;;4.80;;
4307;SDS011;2167;53.448;9.984;2023-07-29T02:19:01;5.93;;;4.20;;
4307;SDS011;2167;53.448;9.984;2023-07-29T02:21:28;5.83;;;3.83;;
4307;SDS011;2167;53.448;9.984;2023-07-29T02:23:54;5.10;;;3.43;;
4307;SDS011;2167;53.448;9.984;2023-07-29T02:26:20;4.70;;;3.87;;
4307;SDS011;2167;53.448;9.984;2023-07-29T02:28:46;4.60;;;3.80;;
4307;SDS011;2167;53.448;9.984;2023-07-29T02:31:14;6.67;;;4.70;;
4307;SDS011;2167;53.448;9.984;2023-07-29T02:33:41;4.93;;;3.77;;
4307;SDS011;2167;53.448;9.984;2023-07-29T02:36:07;7.60;;;4.03;;
4307;SDS011;2167;53.448;9.984;2023-07-29T02:38:33;3.57;;;3.27;;
4307;SDS011;2167;53.448;9.984;2023-07-29T02:40:59;4.50;;;3.13;;
4307;SDS011;2167;53.448;9.984;2023-07-29T02:43:25;5.50;;;3.93;;
4307;SDS011;2167;53.448;9.984;2023-07-29T02:45:51;5.27;;;3.77;;
4307;SDS011;2167;53.448;9.984;2023-07-29T02:48:17;6.17;;;4.40;;
4307;SDS011;2167;53.448;9.984;2023-07-29T02:50:43;4.70;;;3.40;;
4307;SDS011;2167;53.448;9.984;2023-07-29T02:53:09;4.80;;;3.63;;
4307;SDS011;2167;53.448;9.984;2023-07-29T02:55:35;9.60;;;3.93;;
4307;SDS011;2167;53.448;9.984;2023-07-29T02:58:05;5.00;;;3.93;;
4307;SDS011;2167;53.448;9.984;2023-07-29T03:00:31;4.60;;;3.43;;
4307;SDS011;2167;53.448;9.984;2023-07-29T03:02:58;5.00;;;4.30;;
4307;SDS011;2167;53.448;9.984;2023-07-29T03:05:24;6.03;;;3.70;;
4307;SDS011;2167;53.448;9.984;2023-07-29T03:07:50;5.67;;;4.20;;
4307;SDS011;2167;53.448;9.984;2023-07-29T03:10:16;4.07;;;3.10;;
4307;SDS011;2167;53.448;9.984;2023-07-29T03:12:42;4.63;;;3.70;;
4307;SDS011;2167;53.448;9.984;2023-07-29T03:15:08;5.60;;;3.87;;
4307;SDS011;2167;53.448;9.984;2023-07-29T03:17:34;6.07;;;4.90;;
4307;SDS011;2167;53.448;9.984;2023-07-29T03:20:00;7.33;;;4.33;;
4307;SDS011;2167;53.448;9.984;2023-07-29T03:22:26;4.67;;;4.17;;
4307;SDS011;2167;53.448;9.984;2023-07-29T03:24:52;7.03;;;4.43;;
4307;SDS011;2167;53.448;9.984;2023-07-29T03:27:18;4.33;;;3.90;;
4307;SDS011;2167;53.448;9.984;2023-07-29T03:29:44;5.00;;;4.50;;
4307;SDS011;2167;53.448;9.984;2023-07-29T03:32:10;5.97;;;3.90;;
4307;SDS011;2167;53.448;9.984;2023-07-29T03:34:37;5.37;;;4.70;;
4307;SDS011;2167;53.448;9.984;2023-07-29T03:37:05;6.63;;;4.90;;
4307;SDS011;2167;53.448;9.984;2023-07-29T03:39:31;6.37;;;5.17;;
4307;SDS011;2167;53.448;9.984;2023-07-29T03:41:57;8.40;;;5.03;;
4307;SDS011;2167;53.448;9.984;2023-07-29T03:44:23;6.70;;;5.20;;
4307;SDS011;2167;53.448;9.984;2023-07-29T03:46:50;10.73;;;7.30;;
4307;SDS011;2167;53.448;9.984;2023-07-29T03:49:16;11.90;;;7.33;;
4307;SDS011;2167;53.448;9.984;2023-07-29T03:51:42;9.73;;;6.90;;
4307;SDS011;2167;53.448;9.984;2023-07-29T03:54:08;9.90;;;6.43;;
4307;SDS011;2167;53.448;9.984;2023-07-29T03:56:34;14.47;;;8.27;;
4307;SDS011;2167;53.448;9.984;2023-07-29T03:59:06;10.33;;;7.43;;
4307;SDS011;2167;53.448;9.984;2023-07-29T04:01:32;12.20;;;7.00;;
4307;SDS011;2167;53.448;9.984;2023-07-29T04:03:58;16.97;;;7.80;;
4307;SDS011;2167;53.448;9.984;2023-07-29T04:06:24;16.13;;;7.37;;
4307;SDS011;2167;53.448;9.984;2023-07-29T04:08:50;10.93;;;6.77;;
4307;SDS011;2167;53.448;9.984;2023-07-29T04:11:16;10.87;;;6.90;;
4307;SDS011;2167;53.448;9.984;2023-07-29T04:13:42;14.67;;;8.30;;
4307;SDS011;2167;53.448;9.984;2023-07-29T04:16:08;10.70;;;6.70;;
4307;SDS011;2167;53.448;9.984;2023-07-29T04:18:34;14.33;;;8.73;;
4307;SDS011;2167;53.448;9.984;2023-07-29T04:21:00;15.63;;;8.70;;
4307;SDS011;2167;53.448;9.984;2023-07-29T04:23:27;13.13;;;8.50;;
4307;SDS011;2167;53.448;9.984;2023-07-29T04:25:52;16.50;;;10.67;;
4307;SDS011;2167;53.448;9.984;2023-07-29T04:28:18;13.50;;;9.13;;
4307;SDS011;2167;53.448;9.984;2023-07-29T04:30:45;10.50;;;7.43;;
4307;SDS011;2167;53.448;9.984;2023-07-29T04:33:11;14.47;;;8.87;;
4307;SDS011;2167;53.448;9.984;2023-07-29T04:35:37;11.10;;;8.43;;
4307;SDS011;2167;53.448;9.984;2023-07-29T04:38:03;14.67;;;8.67;;
4307;SDS011;2167;53.448;9.984;2023-07-29T04:40:32;21.83;;;10.60;;
4307;SDS011;2167;53.448;9.984;2023-07-29T04:43:01;13.23;;;8.90;;
4307;SDS011;2167;53.448;9.984;2023-07-29T04:45:28;15.67;;;10.00;;
4307;SDS011;2167;53.448;9.984;2023-07-29T04:47:54;18.50;;;10.40;;
4307;SDS011;2167;53.448;9.984;2023-07-29T04:50:20;25.53;;;12.07;;
4307;SDS011;2167;53.448;9.984;2023-07-29T04:52:46;21.47;;;12.17;;
4307;SDS011;2167;53.448;9.984;2023-07-29T04:55:12;22.07;;;12.13;;
4307;SDS011;2167;53.448;9.984;2023-07-29T04:57:38;22.83;;;11.83;;
4307;SDS011;2167;53.448;9.984;2023-07-29T05:00:04;20.00;;;13.13;;
4307;SDS011;2167;53.448;9.984;2023-07-29T05:02:30;20.13;;;12.33;;
4307;SDS011;2167;53.448;9.984;2023-07-29T05:04:56;24.37;;;12.80;;
4307;SDS011;2167;53.448;9.984;2023-07-29T05:07:22;21.10;;;13.03;;
4307;SDS011;2167;53.448;9.984;2023-07-29T05:09:48;19.80;;;12.17;;
4307;SDS011;2167;53.448;9.984;2023-07-29T05:12:14;18.17;;;11.30;;
4307;SDS011;2167;53.448;9.984;2023-07-29T05:14:40;21.07;;;12.47;;
4307;SDS011;2167;53.448;9.984;2023-07-29T05:17:06;20.47;;;12.60;;
4307;SDS011;2167;53.448;9.984;2023-07-29T05:19:32;24.07;;;12.60;;
4307;SDS011;2167;53.448;9.984;2023-07-29T05:21:58;28.27;;;12.83;;
4307;SDS011;2167;53.448;9.984;2023-07-29T05:24:24;21.90;;;12.40;;
4307;SDS011;2167;53.448;9.984;2023-07-29T05:26:50;18.43;;;11.30;;
4307;SDS011;2167;53.448;9.984;2023-07-29T05:29:16;23.47;;;11.70;;
4307;SDS011;2167;53.448;9.984;2023-07-29T05:31:42;23.47;;;12.00;;
4307;SDS011;2167;53.448;9.984;2023-07-29T05:34:09;22.03;;;12.77;;
4307;SDS011;2167;53.448;9.984;2023-07-29T05:36:35;22.20;;;13.17;;
4307;SDS011;2167;53.448;9.984;2023-07-29T05:39:01;26.63;;;13.80;;
4307;SDS011;2167;53.448;9.984;2023-07-29T05:41:27;29.97;;;13.17;;
4307;SDS011;2167;53.448;9.984;2023-07-29T05:43:54;25.03;;;13.83;;
4307;SDS011;2167;53.448;9.984;2023-07-29T05:46:19;28.83;;;13.83;;
4307;SDS011;2167;53.448;9.984;2023-07-29T05:48:45;23.60;;;14.50;;
4307;SDS011;2167;53.448;9.984;2023-07-29T05:51:11;23.90;;;12.90;;
4307;SDS011;2167;53.448;9.984;2023-07-29T05:53:37;29.23;;;14.10;;
4307;SDS011;2167;53.448;9.984;2023-07-29T05:56:03;20.33;;;12.33;;
4307;SDS011;2167;53.448;9.984;2023-07-29T05:58:29;25.40;;;13.40;;
4307;SDS011;2167;53.448;9.984;2023-07-29T06:00:56;24.70;;;13.87;;
4307;SDS011;2167;53.448;9.984;2023-07-29T06:03:22;24.27;;;12.27;;
4307;SDS011;2167;53.448;9.984;2023-07-29T06:05:49;25.13;;;12.33;;
4307;SDS011;2167;53.448;9.984;2023-07-29T06:08:15;24.87;;;13.80;;
4307;SDS011;2167;53.448;9.984;2023-07-29T06:10:41;23.50;;;14.07;;
4307;SDS011;2167;53.448;9.984;2023-07-29T06:13:07;27.50;;;15.17;;
4307;SDS011;2167;53.448;9.984;2023-07-29T06:15:33;27.07;;;14.60;;
4307;SDS011;2167;53.448;9.984;2023-07-29T06:17:59;25.93;;;14.10;;
4307;SDS011;2167;53.448;9.984;2023-07-29T06:20:25;29.17;;;15.13;;
4307;SDS011;2167;53.448;9.984;2023-07-29T06:22:51;25.30;;;13.90;;
4307;SDS011;2167;53.448;9.984;2023-07-29T06:25:17;25.90;;;14.67;;
4307;SDS011;2167;53.448;9.984;2023-07-29T06:27:43;32.70;;;14.27;;
4307;SDS011;2167;53.448;9.984;2023-07-29T06:30:09;26.07;;;13.90;;
4307;SDS011;2167;53.448;9.984;2023-07-29T06:32:35;24.17;;;14.43;;
4307;SDS011;2167;53.448;9.984;2023-07-29T06:35:01;24.73;;;13.60;;
4307;SDS011;2167;53.448;9.984;2023-07-29T06:37:27;21.30;;;12.97;;
4307;SDS011;2167;53.448;9.984;2023-07-29T06:39:53;19.07;;;12.80;;
4307;SDS011;2167;53.448;9.984;2023-07-29T06:42:19;23.00;;;11.93;;
4307;SDS011;2167;53.448;9.984;2023-07-29T06:44:45;21.80;;;12.53;;
4307;SDS011;2167;53.448;9.984;2023-07-29T06:47:11;18.93;;;11.27;;
4307;SDS011;2167;53.448;9.984;2023-07-29T06:49:37;18.20;;;11.37;;
4307;SDS011;2167;53.448;9.984;2023-07-29T06:52:03;17.97;;;10.63;;
4307;SDS011;2167;53.448;9.984;2023-07-29T06:54:29;17.17;;;11.60;;
4307;SDS011;2167;53.448;9.984;2023-07-29T06:56:55;17.70;;;10.80;;
4307;SDS011;2167;53.448;9.984;2023-07-29T06:59:21;16.40;;;9.80;;
4307;SDS011;2167;53.448;9.984;2023-07-29T07:01:49;16.70;;;11.20;;
4307;SDS011;2167;53.448;9.984;2023-07-29T07:04:15;17.03;;;10.80;;
4307;SDS011;2167;53.448;9.984;2023-07-29T07:06:41;18.67;;;10.97;;
4307;SDS011;2167;53.448;9.984;2023-07-29T07:09:07;15.80;;;10.00;;
4307;SDS011;2167;53.448;9.984;2023-07-29T07:11:33;18.97;;;10.03;;
4307;SDS011;2167;53.448;9.984;2023-07-29T07:13:59;12.20;;;8.97;;
4307;SDS011;2167;53.448;9.984;2023-07-29T07:16:25;12.57;;;9.00;;
4307;SDS011;2167;53.448;9.984;2023-07-29T07:18:57;15.70;;;8.33;;
4307;SDS011;2167;53.448;9.984;2023-07-29T07:21:23;12.33;;;8.57;;
4307;SDS011;2167;53.448;9.984;2023-07-29T07:23:49;14.60;;;10.00;;
4307;SDS011;2167;53.448;9.984;2023-07-29T07:26:15;9.90;;;6.73;;
4307;SDS011;2167;53.448;9.984;2023-07-29T07:28:41;16.07;;;10.00;;
4307;SDS011;2167;53.448;9.984;2023-07-29T07:31:07;11.80;;;8.70;;
4307;SDS011;2167;53.448;9.984;2023-07-29T07:33:33;15.27;;;8.10;;
4307;SDS011;2167;53.448;9.984;2023-07-29T07:35:59;14.27;;;8.57;;
4307;SDS011;2167;53.448;9.984;2023-07-29T07:38:25;11.60;;;8.00;;
4307;SDS011;2167;53.448;9.984;2023-07-29T07:40:55;11.60;;;8.03;;
4307;SDS011;2167;53.448;9.984;2023-07-29T07:43:22;9.10;;;7.00;;
4307;SDS011;2167;53.448;9.984;2023-07-29T07:45:48;8.70;;;7.43;;
4307;SDS011;2167;53.448;9.984;2023-07-29T07:48:14;9.93;;;6.93;;
4307;SDS011;2167;53.448;9.984;2023-07-29T07:50:41;12.80;;;8.10;;
4307;SDS011;2167;53.448;9.984;2023-07-29T07:53:16;12.70;;;8.47;;
4307;SDS011;2167;53.448;9.984;2023-07-29T07:55:45;12.03;;;7.57;;
4307;SDS011;2167;53.448;9.984;2023-07-29T07:58:17;10.97;;;7.93;;
4307;SDS011;2167;53.448;9.984;2023-07-29T08:00:43;9.83;;;6.83;;
4307;SDS011;2167;53.448;9.984;2023-07-29T08:03:09;13.17;;;7.57;;
4307;SDS011;2167;53.448;9.984;2023-07-29T08:05:35;11.60;;;7.17;;
4307;SDS011;2167;53.448;9.984;2023-07-29T08:08:01;11.03;;;7.73;;
4307;SDS011;2167;53.448;9.984;2023-07-29T08:10:27;11.80;;;6.70;;
4307;SDS011;2167;53.448;9.984;2023-07-29T08:12:53;15.80;;;7.50;;
4307;SDS011;2167;53.448;9.984;2023-07-29T08:15:19;10.40;;;7.17;;
4307;SDS011;2167;53.448;9.984;2023-07-29T08:17:45;12.87;;;7.60;;
4307;SDS011;2167;53.448;9.984;2023-07-29T08:20:11;9.13;;;6.70;;
4307;SDS011;2167;53.448;9.984;2023-07-29T08:22:37;13.93;;;8.50;;
4307;SDS011;2167;53.448;9.984;2023-07-29T08:25:03;8.57;;;6.70;;
4307;SDS011;2167;53.448;9.984;2023-07-29T08:27:29;11.17;;;7.57;;
4307;SDS011;2167;53.448;9.984;2023-07-29T08:29:55;10.27;;;7.47;;
4307;SDS011;2167;53.448;9.984;2023-07-29T08:32:21;10.83;;;7.73;;
4307;SDS011;2167;53.448;9.984;2023-07-29T08:34:47;11.83;;;7.37;;
4307;SDS011;2167;53.448;9.984;2023-07-29T08:37:13;9.60;;;6.90;;
4307;SDS011;2167;53.448;9.984;2023-07-29T08:39:39;9.40;;;7.50;;
4307;SDS011;2167;53.448;9.984;2023-07-29T08:42:07;11.60;;;8.00;;
4307;SDS011;2167;53.448;9.984;2023-07-29T08:44:36;16.63;;;7.13;;
4307;SDS011;2167;53.448;9.984;2023-07-29T08:47:05;10.47;;;7.60;;
4307;SDS011;2167;53.448;9.984;2023-07-29T08:49:32;8.87;;;6.53;;
4307;SDS011;2167;53.448;9.984;2023-07-29T08:51:58;12.43;;;7.80;;
4307;SDS011;2167;53.448;9.984;2023-07-29T08:54:25;8.20;;;6.50;;
4307;SDS011;2167;53.448;9.984;2023-07-29T08:56:51;9.63;;;6.93;;
4307;SDS011;2167;53.448;9.984;2023-07-29T08:59:17;11.37;;;7.73;;
4307;SDS011;2167;53.448;9.984;2023-07-29T09:01:43;11.57;;;7.97;;
4307;SDS011;2167;53.448;9.984;2023-07-29T09:04:09;12.20;;;7.17;;
4307;SDS011;2167;53.448;9.984;2023-07-29T09:06:35;10.50;;;7.10;;
4307;SDS011;2167;53.448;9.984;2023-07-29T09:09:03;13.37;;;8.50;;
4307;SDS011;2167;53.448;9.984;2023-07-29T09:11:30;11.80;;;8.07;;
4307;SDS011;2167;53.448;9.984;2023-07-29T09:13:56;12.73;;;7.20;;
4307;SDS011;2167;53.448;9.984;2023-07-29T09:16:22;13.87;;;8.87;;
4307;SDS011;2167;53.448;9.984;2023-07-29T09:18:49;9.70;;;7.60;;
4307;SDS011;2167;53.448;9.984;2023-07-29T09:21:22;11.70;;;8.13;;
4307;SDS011;2167;53.448;9.984;2023-07-29T09:23:49;10.60;;;8.40;;
4307;SDS011;2167;53.448;9.984;2023-07-29T09:26:21;11.70;;;7.30;;
4307;SDS011;2167;53.448;9.984;2023-07-29T09:28:51;9.97;;;6.90;;
4307;SDS011;2167;53.448;9.984;2023-07-29T09:31:20;9.37;;;6.80;;
4307;SDS011;2167;53.448;9.984;2023-07-29T09:33:46;10.40;;;6.80;;
4307;SDS011;2167;53.448;9.984;2023-07-29T09:36:13;8.57;;;5.97;;
4307;SDS011;2167;53.448;9.984;2023-07-29T09:38:39;9.60;;;6.50;;
4307;SDS011;2167;53.448;9.984;2023-07-29T09:41:05;10.73;;;7.50;;
4307;SDS011;2167;53.448;9.984;2023-07-29T09:43:32;8.37;;;6.23;;
4307;SDS011;2167;53.448;9.984;2023-07-29T09:46:01;8.97;;;5.80;;
4307;SDS011;2167;53.448;9.984;2023-07-29T09:48:28;6.67;;;5.57;;
4307;SDS011;2167;53.448;9.984;2023-07-29T09:50:57;7.77;;;5.87;;
4307;SDS011;2167;53.448;9.984;2023-07-29T09:53:24;9.03;;;6.20;;
4307;SDS011;2167;53.448;9.984;2023-07-29T09:55:50;6.93;;;5.13;;
4307;SDS011;2167;53.448;9.984;2023-07-29T09:58:27;7.50;;;5.50;;
4307;SDS011;2167;53.448;9.984;2023-07-29T10:00:53;6.43;;;4.93;;
4307;SDS011;2167;53.448;9.984;2023-07-29T10:03:22;7.20;;;5.53;;
4307;SDS011;2167;53.448;9.984;2023-07-29T10:05:49;6.67;;;5.03;;
4307;SDS011;2167;53.448;9.984;2023-07-29T10:08:16;5.93;;;5.00;;
4307;SDS011;2167;53.448;9.984;2023-07-29T10:10:42;5.87;;;4.53;;
4307;SDS011;2167;53.448;9.984;2023-07-29T10:13:08;5.47;;;4.20;;
4307;SDS011;2167;53.448;9.984;2023-07-29T10:15:34;7.07;;;4.33;;
4307;SDS011;2167;53.448;9.984;2023-07-29T10:18:01;5.20;;;4.03;;
4307;SDS011;2167;53.448;9.984;2023-07-29T10:20:29;4.57;;;3.50;;
4307;SDS011;2167;53.448;9.984;2023-07-29T10:22:56;3.90;;;3.30;;
4307;SDS011;2167;53.448;9.984;2023-07-29T10:25:27;5.70;;;2.87;;
4307;SDS011;2167;53.448;9.984;2023-07-29T10:28:05;4.97;;;3.27;;
4307;SDS011;2167;53.448;9.984;2023-07-29T10:30:31;3.03;;;2.60;;
4307;SDS011;2167;53.448;9.984;2023-07-29T10:32:58;2.70;;;2.50;;
4307;SDS011;2167;53.448;9.984;2023-07-29T10:35:27;4.23;;;2.80;;
4307;SDS011;2167;53.448;9.984;2023-07-29T10:37:54;3.00;;;2.77;;
4307;SDS011;2167;53.448;9.984;2023-07-29T10:40:20;4.23;;;3.47;;
4307;SDS011;2167;53.448;9.984;2023-07-29T10:43:33;4.10;;;3.03;;
4307;SDS011;2167;53.448;9.984;2023-07-29T10:45:36;3.20;;;2.47;;
4307;SDS011;2167;53.448;9.984;2023-07-29T10:48:08;3.00;;;2.50;;
4307;SDS011;2167;53.448;9.984;2023-07-29T10:50:35;2.87;;;2.20;;
4307;SDS011;2167;53.448;9.984;2023-07-29T10:53:01;2.60;;;2.20;;
4307;SDS011;2167;53.448;9.984;2023-07-29T10:55:34;6.60;;;2.27;;
4307;SDS011;2167;53.448;9.984;2023-07-29T10:58:21;2.43;;;2.23;;
4307;SDS011;2167;53.448;9.984;2023-07-29T11:00:47;2.30;;;1.80;;
4307;SDS011;2167;53.448;9.984;2023-07-29T11:03:15;2.57;;;2.30;;
4307;SDS011;2167;53.448;9.984;2023-07-29T11:05:42;2.33;;;2.13;;
4307;SDS011;2167;53.448;9.984;2023-07-29T11:08:27;9.60;;;2.63;;
4307;SDS011;2167;53.448;9.984;2023-07-29T11:10:58;4.90;;;2.47;;
4307;SDS011;2167;53.448;9.984;2023-07-29T11:13:28;6.03;;;2.63;;
4307;SDS011;2167;53.448;9.984;2023-07-29T11:15:54;3.37;;;2.90;;
4307;SDS011;2167;53.448;9.984;2023-07-29T11:18:21;2.70;;;2.50;;
4307;SDS011;2167;53.448;9.984;2023-07-29T11:20:47;6.47;;;3.17;;
4307;SDS011;2167;53.448;9.984;2023-07-29T11:23:13;3.80;;;3.07;;
4307;SDS011;2167;53.448;9.984;2023-07-29T11:25:42;3.87;;;3.03;;
4307;SDS011;2167;53.448;9.984;2023-07-29T11:28:08;3.80;;;2.90;;
4307;SDS011;2167;53.448;9.984;2023-07-29T11:30:39;5.70;;;3.73;;
4307;SDS011;2167;53.448;9.984;2023-07-29T11:33:05;3.57;;;3.27;;
4307;SDS011;2167;53.448;9.984;2023-07-29T11:35:31;4.77;;;4.00;;
4307;SDS011;2167;53.448;9.984;2023-07-29T11:37:58;4.20;;;3.67;;
4307;SDS011;2167;53.448;9.984;2023-07-29T11:40:24;4.33;;;3.83;;
4307;SDS011;2167;53.448;9.984;2023-07-29T11:42:50;4.77;;;3.97;;
4307;SDS011;2167;53.448;9.984;2023-07-29T11:45:17;4.70;;;4.30;;
4307;SDS011;2167;53.448;9.984;2023-07-29T11:47:43;4.67;;;4.13;;
4307;SDS011;2167;53.448;9.984;2023-07-29T11:50:09;5.20;;;4.40;;
4307;SDS011;2167;53.448;9.984;2023-07-29T11:52:36;4.37;;;3.97;;
4307;SDS011;2167;53.448;9.984;2023-07-29T11:55:03;3.63;;;3.27;;
4307;SDS011;2167;53.448;9.984;2023-07-29T11:57:30;4.83;;;3.70;;
4307;SDS011;2167;53.448;9.984;2023-07-29T11:59:56;5.30;;;3.40;;
4307;SDS011;2167;53.448;9.984;2023-07-29T12:02:23;6.23;;;3.43;;
4307;SDS011;2167;53.448;9.984;2023-07-29T12:04:50;6.33;;;3.70;;
4307;SDS011;2167;53.448;9.984;2023-07-29T12:07:17;4.17;;;3.37;;
4307;SDS011;2167;53.448;9.984;2023-07-29T12:09:43;3.20;;;2.90;;
4307;SDS011;2167;53.448;9.984;2023-07-29T12:12:09;3.90;;;3.40;;
4307;SDS011;2167;53.448;9.984;2023-07-29T12:14:35;4.43;;;3.40;;
4307;SDS011;2167;53.448;9.984;2023-07-29T12:17:02;3.90;;;3.30;;
4307;SDS011;2167;53.448;9.984;2023-07-29T12:19:34;3.97;;;2.60;;
4307;SDS011;2167;53.448;9.984;2023-07-29T12:22:01;7.13;;;3.53;;
4307;SDS011;2167;53.448;9.984;2023-07-29T12:24:28;3.20;;;2.70;;
4307;SDS011;2167;53.448;9.984;2023-07-29T12:26:55;6.10;;;2.60;;
4307;SDS011;2167;53.448;9.984;2023-07-29T12:29:21;2.60;;;2.27;;
4307;SDS011;2167;53.448;9.984;2023-07-29T12:31:47;3.23;;;2.43;;
4307;SDS011;2167;53.448;9.984;2023-07-29T12:34:17;2.90;;;2.20;;
4307;SDS011;2167;53.448;9.984;2023-07-29T12:36:50;2.60;;;2.40;;
4307;SDS011;2167;53.448;9.984;2023-07-29T12:39:20;3.20;;;2.87;;
4307;SDS011;2167;53.448;9.984;2023-07-29T12:41:47;3.00;;;2.00;;
4307;SDS011;2167;53.448;9.984;2023-07-29T12:44:13;2.47;;;2.20;;
4307;SDS011;2167;53.448;9.984;2023-07-29T12:46:39;2.27;;;2.07;;
4307;SDS011;2167;53.448;9.984;2023-07-29T12:49:06;3.47;;;2.50;;
4307;SDS011;2167;53.448;9.984;2023-07-29T12:51:31;2.83;;;2.63;;
4307;SDS011;2167;53.448;9.984;2023-07-29T12:53:57;1.93;;;1.83;;
4307;SDS011;2167;53.448;9.984;2023-07-29T12:56:23;2.43;;;2.23;;
4307;SDS011;2167;53.448;9.984;2023-07-29T12:58:49;5.70;;;2.47;;
4307;SDS011;2167;53.448;9.984;2023-07-29T13:01:15;2.43;;;2.23;;
4307;SDS011;2167;53.448;9.984;2023-07-29T13:03:43;2.93;;;2.63;;
4307;SDS011;2167;53.448;9.984;2023-07-29T13:06:09;3.43;;;2.63;;
4307;SDS011;2167;53.448;9.984;2023-07-29T13:08:36;7.93;;;2.67;;
4307;SDS011;2167;53.448;9.984;2023-07-29T13:11:03;2.40;;;2.20;;
4307;SDS011;2167;53.448;9.984;2023-07-29T13:13:29;4.63;;;2.87;;
4307;SDS011;2167;53.448;9.984;2023-07-29T13:15:55;3.70;;;2.60;;
4307;SDS011;2167;53.448;9.984;2023-07-29T13:18:21;2.80;;;2.60;;
4307;SDS011;2167;53.448;9.984;2023-07-29T13:20:47;3.60;;;3.30;;
4307;SDS011;2167;53.448;9.984;2023-07-29T13:23:13;3.30;;;3.00;;
4307;SDS011;2167;53.448;9.984;2023-07-29T13:25:39;2.83;;;2.63;;
4307;SDS011;2167;53.448;9.984;2023-07-29T13:28:05;2.80;;;2.60;;
4307;SDS011;2167;53.448;9.984;2023-07-29T13:30:32;3.70;;;3.10;;
4307;SDS011;2167;53.448;9.984;2023-07-29T13:32:58;3.07;;;2.80;;
4307;SDS011;2167;53.448;9.984;2023-07-29T13:35:24;2.93;;;2.70;;
4307;SDS011;2167;53.448;9.984;2023-07-29T13:37:50;3.30;;;2.53;;
4307;SDS011;2167;53.448;9.984;2023-07-29T13:40:16;4.00;;;3.30;;
4307;SDS011;2167;53.448;9.984;2023-07-29T13:42:42;3.27;;;2.97;;
4307;SDS011;2167;53.448;9.984;2023-07-29T13:45:08;2.70;;;2.50;;
4307;SDS011;2167;53.448;9.984;2023-07-29T13:47:34;3.07;;;2.70;;
4307;SDS011;2167;53.448;9.984;2023-07-29T13:50:00;4.33;;;2.60;;
4307;SDS011;2167;53.448;9.984;2023-07-29T13:52:26;3.23;;;2.93;;
4307;SDS011;2167;53.448;9.984;2023-07-29T13:54:52;3.77;;;2.67;;
4307;SDS011;2167;53.448;9.984;2023-07-29T13:57:18;3.07;;;2.77;;
4307;SDS011;2167;53.448;9.984;2023-07-29T13:59:44;3.00;;;2.80;;
4307;SDS011;2167;53.448;9.984;2023-07-29T14:02:10;3.13;;;2.83;;
4307;SDS011;2167;53.448;9.984;2023-07-29T14:04:36;2.80;;;2.50;;
4307;SDS011;2167;53.448;9.984;2023-07-29T14:07:02;2.60;;;2.40;;
4307;SDS011;2167;53.448;9.984;2023-07-29T14:09:28;3.00;;;2.77;;
4307;SDS011;2167;53.448;9.984;2023-07-29T14:11:54;2.70;;;2.50;;
4307;SDS011;2167;53.448;9.984;2023-07-29T14:14:20;4.20;;;3.10;;
4307;SDS011;2167;53.448;9.984;2023-07-29T14:16:46;3.00;;;1.97;;
4307;SDS011;2167;53.448;9.984;2023-07-29T14:19:12;3.03;;;2.23;;
4307;SDS011;2167;53.448;9.984;2023-07-29T14:21:38;2.20;;;2.00;;
4307;SDS011;2167;53.448;9.984;2023-07-29T14:24:05;3.30;;;2.27;;
4307;SDS011;2167;53.448;9.984;2023-07-29T14:26:39;1.90;;;1.80;;
4307;SDS011;2167;53.448;9.984;2023-07-29T14:29:05;2.30;;;1.67;;
4307;SDS011;2167;53.448;9.984;2023-07-29T14:31:31;2.43;;;1.70;;
4307;SDS011;2167;53.448;9.984;2023-07-29T14:33:57;2.30;;;2.10;;
4307;SDS011;2167;53.448;9.984;2023-07-29T14:36:24;2.33;;;1.90;;
4307;SDS011;2167;53.448;9.984;2023-07-29T14:38:50;3.20;;;2.37;;
4307;SDS011;2167;53.448;9.984;2023-07-29T14:41:16;2.20;;;2.00;;
4307;SDS011;2167;53.448;9.984;2023-07-29T14:43:42;5.27;;;1.93;;
4307;SDS011;2167;53.448;9.984;2023-07-29T14:46:08;2.87;;;2.20;;
4307;SDS011;2167;53.448;9.984;2023-07-29T14:48:34;1.90;;;1.70;;
4307;SDS011;2167;53.448;9.984;2023-07-29T14:51:00;2.30;;;1.70;;
4307;SDS011;2167;53.448;9.984;2023-07-29T14:53:26;2.20;;;1.70;;
4307;SDS011;2167;53.448;9.984;2023-07-29T14:55:52;2.97;;;1.80;;
4307;SDS011;2167;53.448;9.984;2023-07-29T14:58:19;2.70;;;1.57;;
4307;SDS011;2167;53.448;9.984;2023-07-29T15:00:45;2.67;;;1.63;;
4307;SDS011;2167;53.448;9.984;2023-07-29T15:03:11;2.80;;;1.63;;
4307;SDS011;2167;53.448;9.984;2023-07-29T15:05:37;2.40;;;2.03;;
4307;SDS011;2167;53.448;9.984;2023-07-29T15:08:03;2.50;;;1.70;;
4307;SDS011;2167;53.448;9.984;2023-07-29T15:10:29;1.97;;;1.87;;
4307;SDS011;2167;53.448;9.984;2023-07-29T15:12:56;2.20;;;2.00;;
4307;SDS011;2167;53.448;9.984;2023-07-29T15:15:22;2.57;;;1.73;;